createdAt,value
2019-04-03T02:02:38.619Z,95295.20
2019-04-03T02:05:07.317Z,95293.77
2019-04-03T02:07:35.082Z,95286.47
2019-04-03T02:10:03.212Z,95284.38
2019-04-03T02:12:31.168Z,95277.95
2019-04-03T02:14:59.204Z,95269.59
2019-04-03T02:17:26.837Z,95279.27
2019-04-03T02:19:56.034Z,95279.20
2019-04-03T02:22:24.107Z,95274.45
2019-04-03T02:24:52.151Z,95272.11
2019-04-03T02:27:20.297Z,95273.47
2019-04-03T02:29:47.976Z,95275.61
2019-04-03T02:32:15.841Z,95274.47
2019-04-03T02:34:43.506Z,95277.23
2019-04-03T02:37:12.072Z,95279.73
2019-04-03T02:39:40.184Z,95279.23
2019-04-03T02:42:08.884Z,95274.64
2019-04-03T02:44:37.374Z,95269.88
2019-04-03T02:47:05.188Z,95275.00
2019-04-03T02:49:33.181Z,95272.37
2019-04-03T02:52:00.864Z,95274.82
2019-04-03T02:54:30.052Z,95277.27
2019-04-03T02:56:58.317Z,95274.17
2019-04-03T02:59:26.963Z,95268.41
2019-04-03T03:01:54.628Z,95270.88
2019-04-03T03:04:23.770Z,95259.95
2019-04-03T03:06:51.363Z,95255.81
2019-04-03T03:09:18.957Z,95255.45
2019-04-03T03:11:46.889Z,95256.27
2019-04-03T03:14:15.392Z,95248.99
2019-04-03T03:16:44.365Z,95245.20
2019-04-03T03:19:13.217Z,95244.61
2019-04-03T03:21:43.849Z,95233.95
2019-04-03T03:24:11.043Z,95233.48
2019-04-03T03:26:38.634Z,95239.61
2019-04-03T03:29:16.520Z,95247.02
2019-04-03T03:32:03.538Z,95256.09
2019-04-03T03:34:06.947Z,95261.02
2019-04-03T03:36:37.265Z,95262.81
2019-04-03T03:39:10.362Z,95261.34
2019-04-03T03:41:37.186Z,95252.09
2019-04-03T03:44:05.243Z,95252.95
2019-04-03T14:29:22.126Z,94618.42
2019-04-03T14:31:50.122Z,94611.93
2019-04-03T14:34:18.738Z,94612.61
2019-04-03T14:36:47.914Z,94605.12
2019-04-03T14:39:17.548Z,94610.39
2019-04-03T14:41:46.483Z,94600.08
2019-04-03T14:44:14.968Z,94601.83
2019-04-03T14:46:43.528Z,94613.69
2019-04-03T14:49:11.417Z,94599.23
2019-04-03T14:51:39.086Z,94607.41
2019-04-03T14:54:08.406Z,94610.00
2019-04-03T14:56:37.380Z,94607.28
2019-04-03T14:59:05.367Z,94601.58
2019-04-03T15:01:33.132Z,94604.57
2019-04-03T15:04:02.243Z,94600.84
2019-04-03T15:06:31.087Z,94605.94
2019-04-03T15:08:59.184Z,94603.84
2019-04-03T15:11:27.900Z,94602.27
2019-04-03T15:13:55.642Z,94600.94
2019-04-03T15:16:23.275Z,94599.05
2019-04-03T15:18:52.553Z,94604.98
2019-04-03T15:21:22.931Z,94601.92
2019-04-03T15:23:50.806Z,94599.72
2019-04-03T15:26:21.844Z,94597.42
2019-04-03T15:28:49.279Z,94602.57
2019-04-03T15:31:17.175Z,94608.74
2019-04-03T15:33:45.866Z,94608.02
2019-04-03T15:36:13.640Z,94601.05
2019-04-03T15:38:44.619Z,94596.84
2019-04-03T15:41:12.487Z,94600.09
2019-04-03T15:43:40.392Z,94605.94
2019-04-03T15:46:08.068Z,94591.34
2019-04-03T15:48:37.592Z,94601.29
2019-04-03T15:51:07.304Z,94587.84
2019-04-03T15:53:35.345Z,94583.41
2019-04-03T15:56:03.642Z,94589.84
2019-04-03T15:58:31.403Z,94588.91
2019-04-03T16:00:59.517Z,94591.08
2019-04-03T16:03:27.715Z,94596.33
2019-04-03T16:05:56.474Z,94595.36
2019-04-03T16:08:24.526Z,94586.86
2019-04-03T16:10:56.165Z,94586.27
2019-04-03T16:13:22.692Z,94585.43
2019-04-03T16:15:50.990Z,94582.06
2019-04-03T16:18:20.142Z,94579.72
2019-04-03T16:20:49.149Z,94574.36
2019-04-03T16:23:17.713Z,94568.58
2019-04-03T16:25:48.582Z,94566.76
2019-04-03T16:28:15.393Z,94569.56
2019-04-03T16:30:44.986Z,94573.77
2019-04-03T16:33:19.910Z,94569.73
2019-04-03T16:35:44.746Z,94565.48
2019-04-03T16:38:12.156Z,94564.05
2019-04-03T16:40:39.959Z,94565.84
2019-04-03T16:43:08.034Z,94569.34
2019-04-03T16:45:38.946Z,94570.05
2019-04-03T16:48:06.558Z,94575.04
2019-04-03T16:50:34.777Z,94565.63
2019-04-03T16:53:03.036Z,94558.20
2019-04-03T16:55:30.842Z,94557.13
2019-04-03T16:57:58.868Z,94552.88
2019-04-03T17:00:27.691Z,94554.73
2019-04-03T17:02:57.087Z,94563.98
2019-04-03T17:05:24.719Z,94554.11
2019-04-03T17:07:55.659Z,94558.63
2019-04-03T17:10:23.624Z,94557.83
2019-04-03T17:12:51.492Z,94560.16
2019-04-03T17:15:20.500Z,94560.14
2019-04-03T17:17:48.811Z,94563.01
2019-04-03T17:20:17.423Z,94571.34
2019-04-03T17:22:46.784Z,94560.39
2019-04-03T17:25:15.136Z,94563.98
2019-04-03T17:27:54.049Z,94554.55
2019-04-03T17:30:13.761Z,94556.34
2019-04-03T17:32:42.638Z,94554.61
2019-04-03T17:35:12.015Z,94557.03
2019-04-03T17:37:41.099Z,94550.30
2019-04-03T17:40:09.817Z,94561.00
2019-04-03T17:42:39.288Z,94566.23
2019-04-03T17:45:06.952Z,94563.38
2019-04-03T17:47:35.305Z,94562.81
2019-04-03T17:50:06.134Z,94555.89
2019-04-03T17:52:36.024Z,94555.62
2019-04-03T17:55:02.791Z,94563.22
2019-04-03T17:57:31.426Z,94553.75
2019-04-03T18:00:00.320Z,94561.56
2019-04-03T18:02:29.598Z,94559.86
2019-04-03T18:04:57.296Z,94572.31
2019-04-03T18:07:28.255Z,94573.38
2019-04-03T18:09:54.589Z,94582.36
2019-04-03T18:12:22.115Z,94581.94
2019-04-03T18:14:49.975Z,94584.48
2019-04-03T18:17:19.518Z,94582.46
2019-04-03T18:19:47.772Z,94589.52
2019-04-03T18:22:15.864Z,94592.20
2019-04-03T18:24:43.461Z,94584.73
2019-04-03T18:27:11.353Z,94580.28
2019-04-03T18:29:38.896Z,94579.38
2019-04-03T18:32:06.887Z,94581.03
2019-04-03T18:34:34.727Z,94573.95
2019-04-03T18:37:04.037Z,94579.30
2019-04-03T18:39:33.056Z,94575.20
2019-04-03T18:42:01.045Z,94574.33
2019-04-03T18:44:30.332Z,94572.91
2019-04-03T18:46:59.162Z,94568.14
2019-04-03T18:49:27.078Z,94573.33
2019-04-03T18:51:55.152Z,94582.11
2019-04-03T18:54:22.777Z,94579.55
2019-04-03T18:56:51.271Z,94585.09
2019-04-03T18:59:19.452Z,94588.77
2019-04-03T19:01:47.408Z,94591.09
2019-04-03T19:04:15.388Z,94587.45
2019-04-03T19:06:44.830Z,94581.95
2019-04-03T19:09:14.722Z,94587.75
2019-04-03T19:11:42.349Z,94591.31
2019-04-03T19:14:09.896Z,94587.66
2019-04-03T19:16:45.299Z,94587.33
2019-04-03T19:19:08.826Z,94587.44
2019-04-03T19:21:36.723Z,94576.57
2019-04-03T19:24:04.547Z,94570.97
2019-04-03T19:26:32.920Z,94573.80
2019-04-03T19:29:05.150Z,94577.35
2019-04-03T19:31:33.595Z,94574.92
2019-04-03T19:34:01.077Z,94579.87
2019-04-03T19:36:30.536Z,94577.08
2019-04-03T19:38:58.508Z,94578.73
2019-04-03T19:41:26.915Z,94583.78
2019-04-03T19:43:55.552Z,94576.91
2019-04-03T19:46:23.473Z,94576.70
2019-04-03T19:48:51.722Z,94576.77
2019-04-03T19:51:19.449Z,94583.99
2019-04-03T19:53:58.602Z,94581.14
2019-04-03T19:56:17.283Z,94580.28
2019-04-03T19:58:45.905Z,94575.12
